createdAt,value
2016-06-25T00:01:01.648Z,0
2016-06-25T00:02:00.434Z,0
2016-06-25T00:03:01.063Z,0
2016-06-25T00:04:01.085Z,0
2016-06-25T00:05:00.534Z,0
2016-06-25T00:06:01.137Z,0
2016-06-25T00:07:15.432Z,0
2016-06-25T00:08:14.859Z,0
2016-06-25T00:09:01.208Z,0
2016-06-25T00:10:00.010Z,0
2016-06-25T00:11:00.041Z,0
2016-06-25T00:12:00.676Z,0
2016-06-25T00:14:01.374Z,0
2016-06-25T00:15:15.034Z,0
2016-06-25T00:16:02.029Z,0
2016-06-25T00:17:00.828Z,0
2016-06-25T00:18:00.250Z,0
2016-06-25T00:19:15.165Z,0
2016-06-25T00:20:15.798Z,0
2016-06-25T00:21:00.948Z,0
2016-06-25T00:22:01.576Z,0
2016-06-25T00:23:15.275Z,0
2016-06-25T00:24:01.617Z,0
2016-06-25T00:25:15.940Z,0
2016-06-25T00:25:59.887Z,0
2016-06-25T00:27:01.103Z,0
2016-06-25T00:28:00.512Z,0
2016-06-25T00:29:16.042Z,0
2016-06-25T00:30:01.212Z,0
2016-06-25T00:31:30.375Z,0
2016-06-25T00:32:02.502Z,0
2016-06-25T00:33:16.762Z,0
2016-06-25T00:34:01.291Z,0
2016-06-25T00:35:00.753Z,0
2016-06-25T00:36:01.347Z,0
2016-06-25T00:37:01.986Z,0
2016-06-25T00:38:00.810Z,0
2016-06-25T00:39:01.436Z,0
2016-06-25T00:40:01.467Z,0
2016-06-25T00:43:01.550Z,0
2016-06-25T00:44:02.785Z,0
2016-06-25T00:45:02.228Z,0
2016-06-25T00:46:01.631Z,0
2016-06-25T00:47:30.802Z,0
2016-06-25T00:48:01.668Z,0
2016-06-25T00:49:01.707Z,0
2016-06-25T00:50:17.224Z,0
2016-06-25T00:51:02.355Z,0
2016-06-25T00:52:02.398Z,0
2016-06-25T00:53:02.413Z,0
2016-06-25T00:54:01.871Z,0
2016-06-25T00:55:16.782Z,0
2016-06-25T00:56:01.921Z,0
2016-06-25T00:57:15.604Z,0
2016-06-25T00:58:03.177Z,0
2016-06-25T00:59:01.990Z,0
2016-06-25T01:00:03.262Z,0
2016-06-25T01:01:16.933Z,0
2016-06-25T01:02:02.675Z,0
2016-06-25T01:03:16.965Z,0
2016-06-25T01:04:02.116Z,0
2016-06-25T01:05:16.451Z,0
2016-06-25T01:06:02.790Z,0
2016-06-25T01:07:03.421Z,0
2016-06-25T01:08:02.210Z,0
2016-06-25T01:09:02.875Z,0
2016-06-25T01:10:17.156Z,0
2016-06-25T01:11:02.906Z,0
2016-06-25T01:12:17.211Z,0
2016-06-25T01:13:01.737Z,0
2016-06-25T01:14:01.782Z,0
2016-06-25T01:15:02.414Z,0
2016-06-25T01:16:03.035Z,0
2016-06-25T01:17:03.066Z,0
2016-06-25T01:18:17.411Z,0
2016-06-25T01:19:17.409Z,0
2016-06-25T01:21:03.192Z,0
2016-06-25T01:22:02.582Z,0
2016-06-25T01:23:01.417Z,0
2016-06-25T01:24:16.950Z,0
2016-06-25T01:25:03.927Z,0
2016-06-25T01:26:01.515Z,0
2016-06-25T01:27:18.247Z,0
2016-06-25T01:28:03.996Z,0
2016-06-25T01:29:03.401Z,0
2016-06-25T01:30:02.834Z,0
2016-06-25T01:31:02.248Z,0
2016-06-25T01:32:02.884Z,0
2016-06-25T01:33:04.112Z,0
2016-06-25T01:34:03.541Z,0
2016-06-25T01:36:03.600Z,0
2016-06-25T01:37:03.619Z,0
2016-06-25T01:38:17.911Z,0
2016-06-25T01:39:03.668Z,0
2016-06-25T01:40:17.382Z,0
2016-06-25T01:41:02.525Z,0
2016-06-25T01:42:03.157Z,0
2016-06-25T01:43:02.567Z,0
2016-06-25T01:44:03.202Z,0
2016-06-25T01:45:04.434Z,0
2016-06-25T01:46:03.842Z,0
2016-06-25T01:47:03.277Z,0
2016-06-25T01:48:03.305Z,0
2016-06-25T01:49:02.750Z,0
2016-06-25T01:50:17.630Z,0
2016-06-25T01:51:04.012Z,0
2016-06-25T01:52:04.632Z,0
2016-06-25T01:53:04.680Z,0
2016-06-25T01:54:04.686Z,0
2016-06-25T01:55:03.499Z,0
2016-06-25T01:56:04.126Z,0
2016-06-25T01:57:03.570Z,0
2016-06-25T01:58:03.581Z,0
2016-06-25T01:59:03.020Z,0
2016-06-25T02:00:04.258Z,0
2016-06-25T02:01:03.070Z,0
2016-06-25T02:02:17.945Z,0
2016-06-25T02:03:05.015Z,0
2016-06-25T02:04:03.755Z,0
2016-06-25T02:05:18.044Z,0
2016-06-25T02:06:19.290Z,0
2016-06-25T02:07:19.318Z,0
2016-06-25T02:08:03.866Z,0
2016-06-25T02:09:03.269Z,0
2016-06-25T02:10:03.902Z,0
2016-06-25T02:11:18.209Z,0
2016-06-25T02:12:04.592Z,0
2016-06-25T02:13:17.651Z,0
2016-06-25T02:14:18.910Z,0
2016-06-25T02:15:04.656Z,0
2016-06-25T02:16:03.457Z,0
2016-06-25T02:17:18.372Z,0
2016-06-25T02:18:19.006Z,0
2016-06-25T02:19:05.360Z,0
2016-06-25T02:20:03.585Z,0
2016-06-25T02:21:05.410Z,0
2016-06-25T02:22:18.506Z,0
2016-06-25T02:23:17.925Z,0
2016-06-25T02:24:19.789Z,0
2016-06-25T02:25:04.922Z,0
2016-06-25T02:27:05.003Z,0
2016-06-25T02:28:19.880Z,0
2016-06-25T02:29:05.029Z,0
2016-06-25T02:30:04.441Z,0
2016-06-25T02:31:19.966Z,0
2016-06-25T02:32:04.504Z,0
2016-06-25T02:33:20.036Z,0
2016-06-25T02:34:05.163Z,0
2016-06-25T02:35:04.620Z,0
2016-06-25T02:36:05.822Z,0
2016-06-25T02:37:05.261Z,0
2016-06-25T02:38:18.937Z,0
2016-06-25T02:39:20.171Z,5
2016-06-25T02:40:04.714Z,5
2016-06-25T02:41:20.223Z,5
2016-06-25T02:42:05.404Z,5
2016-06-25T02:43:05.415Z,5
2016-06-25T02:44:04.819Z,5
2016-06-25T02:45:04.282Z,5
2016-06-25T02:47:05.495Z,5
2016-06-25T02:48:19.797Z,5
2016-06-25T02:49:05.570Z,5
2016-06-25T02:50:05.591Z,5
2016-06-25T02:51:19.270Z,10
2016-06-25T02:52:05.644Z,10
2016-06-25T02:53:34.829Z,10
2016-06-25T02:54:06.303Z,10
2016-06-25T02:55:05.127Z,10
2016-06-25T02:56:20.636Z,10
2016-06-25T02:57:05.182Z,10
2016-06-25T02:58:06.429Z,15
2016-06-25T03:01:20.147Z,15
2016-06-25T03:02:06.547Z,15
2016-06-25T03:03:05.334Z,15
2016-06-25T03:04:06.602Z,20
2016-06-25T03:05:05.983Z,20
2016-06-25T03:06:04.187Z,20
2016-06-25T03:07:06.045Z,20
2016-06-25T03:09:20.373Z,25
2016-06-25T03:10:05.532Z,25
2016-06-25T03:11:20.420Z,25
2016-06-25T03:12:06.184Z,25
2016-06-25T03:13:05.599Z,25
2016-06-25T03:14:06.246Z,30
2016-06-25T03:15:06.239Z,30
2016-06-25T03:16:06.292Z,30
2016-06-25T03:17:20.637Z,30
2016-06-25T03:18:06.694Z,35
2016-06-25T03:19:06.359Z,35
2016-06-25T03:20:06.159Z,35
2016-06-25T03:21:06.690Z,35
2016-06-25T03:22:06.452Z,40
2016-06-25T03:23:05.256Z,40
2016-06-25T03:24:20.775Z,40
2016-06-25T03:25:20.783Z,45
2016-06-25T03:27:19.659Z,45
2016-06-25T03:28:07.227Z,45
2016-06-25T03:29:06.655Z,50
2016-06-25T03:30:21.563Z,50
2016-06-25T03:31:06.695Z,50
2016-06-25T03:32:06.103Z,50
2016-06-25T03:33:06.767Z,55
2016-06-25T03:34:06.777Z,55
2016-06-25T03:35:21.082Z,55
2016-06-25T03:36:07.422Z,60
2016-06-25T03:37:06.885Z,60
2016-06-25T03:38:06.873Z,60
2016-06-25T03:39:06.955Z,65
2016-06-25T03:40:07.569Z,65
2016-06-25T03:41:21.263Z,70
2016-06-25T03:42:07.587Z,70
2016-06-25T03:43:21.283Z,70
2016-06-25T03:44:07.041Z,75
2016-06-25T03:45:05.840Z,75
2016-06-25T03:46:07.089Z,75
2016-06-25T03:47:05.906Z,75
2016-06-25T03:48:06.551Z,80
2016-06-25T03:49:07.167Z,80
2016-06-25T03:50:07.231Z,80
2016-06-25T03:51:07.210Z,80
2016-06-25T03:53:06.661Z,85
2016-06-25T03:54:07.919Z,85
2016-06-25T03:55:06.726Z,90
2016-06-25T03:56:06.150Z,90
2016-06-25T03:57:21.050Z,100
2016-06-25T03:58:21.684Z,130
2016-06-25T03:59:08.049Z,145
2016-06-25T04:01:07.513Z,120
2016-06-25T04:02:06.314Z,125
2016-06-25T04:03:21.240Z,110
2016-06-25T04:04:07.585Z,105
2016-06-25T04:05:06.978Z,110
2016-06-25T04:06:06.405Z,110
2016-06-25T04:07:07.701Z,110
2016-06-25T04:08:07.067Z,115
2016-06-25T04:09:07.101Z,125
2016-06-25T04:11:06.550Z,300
2016-06-25T04:13:21.483Z,715
2016-06-25T04:14:07.849Z,715
2016-06-25T04:15:06.665Z,715
2016-06-25T04:16:07.983Z,715
2016-06-25T04:17:22.226Z,745
2016-06-25T04:20:07.405Z,785
2016-06-25T04:21:07.439Z,805
2016-06-25T04:22:07.492Z,840
2016-06-25T04:23:07.476Z,850
2016-06-25T04:24:06.299Z,840
2016-06-25T04:25:07.574Z,835
2016-06-25T04:26:22.497Z,860
2016-06-25T04:27:07.010Z,865
2016-06-25T04:29:21.955Z,850
2016-06-25T04:30:08.325Z,835
2016-06-25T04:31:08.978Z,865
2016-06-25T04:32:08.364Z,895
2016-06-25T04:33:06.583Z,915
2016-06-25T04:34:08.442Z,935
2016-06-25T04:35:09.082Z,940
2016-06-25T04:36:08.498Z,940
2016-06-25T04:37:07.910Z,940
2016-06-25T04:38:08.555Z,940
2016-06-25T04:39:22.239Z,910
2016-06-25T04:40:08.013Z,945
2016-06-25T04:41:08.058Z,985
2016-06-25T04:42:08.744Z,1005
2016-06-25T04:43:08.762Z,1025
2016-06-25T04:44:07.542Z,985
2016-06-25T04:45:23.669Z,1015
2016-06-25T04:46:23.702Z,1015
2016-06-25T04:47:07.672Z,1000
2016-06-25T04:48:08.248Z,1010
2016-06-25T04:49:08.913Z,1060
2016-06-25T04:50:09.613Z,1055
2016-06-25T04:51:07.752Z,1060
2016-06-25T04:52:08.398Z,1070
2016-06-25T04:53:07.202Z,1075
2016-06-25T04:54:08.441Z,1080
2016-06-25T04:55:09.711Z,1055
2016-06-25T04:56:22.806Z,1050
2016-06-25T04:57:07.335Z,1080
2016-06-25T04:59:23.534Z,1050
2016-06-25T05:00:23.538Z,1055
2016-06-25T05:01:08.729Z,1080
2016-06-25T05:02:24.209Z,1150
2016-06-25T05:03:08.768Z,1125
2016-06-25T05:04:23.677Z,1120
2016-06-25T05:05:23.098Z,1175
2016-06-25T05:06:08.899Z,1175
2016-06-25T05:07:08.290Z,1160
2016-06-25T05:08:08.948Z,1200
2016-06-25T05:09:08.986Z,1215
2016-06-25T05:10:24.133Z,1190
2016-06-25T05:11:08.443Z,1190
2016-06-25T05:12:09.683Z,1215
2016-06-25T05:13:09.719Z,1235
2016-06-25T05:14:23.401Z,1245
2016-06-25T05:15:08.597Z,1230
2016-06-25T05:16:22.876Z,1230
2016-06-25T05:17:09.246Z,1230
2016-06-25T05:18:08.105Z,1220
2016-06-25T05:19:09.319Z,1255
2016-06-25T05:20:09.374Z,1260
2016-06-25T05:21:09.374Z,1255
2016-06-25T05:22:08.824Z,1275
2016-06-25T05:23:08.863Z,1275
2016-06-25T05:24:09.500Z,1305
2016-06-25T05:25:08.943Z,1285
2016-06-25T05:26:08.950Z,1235
2016-06-25T05:27:09.627Z,1270
2016-06-25T05:28:09.030Z,1280
2016-06-25T05:30:10.343Z,1245
2016-06-25T05:31:09.763Z,1290
2016-06-25T05:32:24.066Z,1275
2016-06-25T05:33:24.710Z,1280
2016-06-25T05:34:10.482Z,1275
2016-06-25T05:35:09.299Z,1245
2016-06-25T05:36:11.166Z,1280
2016-06-25T05:37:25.454Z,1295
2016-06-25T05:38:08.814Z,1280
2016-06-25T05:39:11.268Z,1250
2016-06-25T05:40:10.074Z,1210
2016-06-25T05:41:24.374Z,1275
2016-06-25T05:42:10.766Z,1320
2016-06-25T05:43:25.059Z,1260
2016-06-25T05:44:10.205Z,1265
2016-06-25T05:45:09.035Z,1235
2016-06-25T05:46:10.283Z,1265
2016-06-25T05:47:10.343Z,1375
2016-06-25T05:48:24.641Z,1330
2016-06-25T05:49:11.042Z,1275
2016-06-25T05:51:10.497Z,1320
2016-06-25T05:52:25.422Z,1305
2016-06-25T05:53:11.163Z,1315
2016-06-25T05:54:26.091Z,1295
2016-06-25T05:55:26.115Z,1295
2016-06-25T05:56:11.285Z,1305
2016-06-25T05:57:11.308Z,1230
2016-06-25T05:58:10.125Z,1240
2016-06-25T05:59:12.026Z,1240
2016-06-25T06:00:10.213Z,1250
2016-06-25T06:01:11.510Z,1265
2016-06-25T06:02:11.519Z,1260
2016-06-25T06:03:25.811Z,1295
2016-06-25T06:05:10.401Z,1245
2016-06-25T06:06:10.425Z,1255
2016-06-25T06:07:25.978Z,1280
2016-06-25T06:08:25.402Z,1295
2016-06-25T06:09:10.560Z,1280
2016-06-25T06:10:26.090Z,1275
2016-06-25T06:12:24.940Z,1265
2016-06-25T06:13:11.939Z,1250
2016-06-25T06:14:11.974Z,1275
2016-06-25T06:15:26.275Z,1245
2016-06-25T06:16:25.718Z,1245
2016-06-25T06:17:12.090Z,1250
2016-06-25T06:18:12.129Z,1250
2016-06-25T06:19:11.527Z,1235
2016-06-25T06:20:26.470Z,1260
2016-06-25T06:21:12.214Z,1250
2016-06-25T06:22:11.698Z,1240
2016-06-25T06:23:11.105Z,1245
2016-06-25T06:25:11.794Z,1225
2016-06-25T06:26:13.027Z,1260
2016-06-25T06:27:26.724Z,1285
2016-06-25T06:28:26.178Z,1245
2016-06-25T06:29:12.534Z,1210
2016-06-25T06:30:11.971Z,1230
2016-06-25T06:31:11.396Z,1265
2016-06-25T06:32:26.317Z,1250
2016-06-25T06:33:12.082Z,1235
2016-06-25T06:34:11.524Z,1250
2016-06-25T06:35:40.699Z,1225
2016-06-25T06:36:12.798Z,1205
2016-06-25T06:37:13.441Z,1220
2016-06-25T06:38:25.942Z,1235
2016-06-25T06:40:27.842Z,1250
2016-06-25T06:41:12.441Z,1230
2016-06-25T06:42:11.801Z,1215
2016-06-25T06:43:13.702Z,1225
2016-06-25T06:45:13.131Z,1230
2016-06-25T06:47:12.002Z,1190
2016-06-25T06:48:28.193Z,1175
2016-06-25T06:49:12.694Z,1180
2016-06-25T06:50:12.721Z,1150
2016-06-25T06:51:42.543Z,1085
2016-06-25T06:52:12.847Z,1090
2016-06-25T06:53:12.859Z,1085
2016-06-25T06:54:12.887Z,1105
2016-06-25T06:55:14.125Z,1115
2016-06-25T06:56:11.744Z,1070
2016-06-25T06:57:14.230Z,1020
2016-06-25T06:58:13.091Z,1035
2016-06-25T06:59:12.472Z,1030
2016-06-25T07:01:28.645Z,965
2016-06-25T07:03:13.833Z,980
2016-06-25T07:04:12.675Z,955
2016-06-25T07:05:28.202Z,870
2016-06-25T07:06:27.629Z,840
2016-06-25T07:07:43.165Z,820
2016-06-25T07:08:14.054Z,795
2016-06-25T07:09:12.865Z,775
2016-06-25T07:10:28.403Z,735
2016-06-25T07:11:13.554Z,735
2016-06-25T07:12:28.463Z,715
2016-06-25T07:13:27.883Z,695
2016-06-25T07:14:13.655Z,685
2016-06-25T07:15:13.093Z,665
2016-06-25T07:16:28.039Z,655
2016-06-25T07:18:12.584Z,650
2016-06-25T07:19:13.237Z,645
2016-06-25T07:20:15.095Z,655
2016-06-25T07:21:14.556Z,680
2016-06-25T07:22:13.358Z,695
2016-06-25T07:23:29.506Z,685
2016-06-25T07:24:14.671Z,690
2016-06-25T07:25:27.798Z,745
2016-06-25T07:26:14.747Z,930
2016-06-25T07:27:29.037Z,970
2016-06-25T07:28:13.600Z,1115
2016-06-25T07:29:14.247Z,1125
2016-06-25T07:30:14.283Z,1085
2016-06-25T07:32:28.026Z,1080
2016-06-25T07:33:13.793Z,1115
2016-06-25T07:34:14.469Z,1040
2016-06-25T07:35:14.478Z,895
2016-06-25T07:36:14.508Z,1000
2016-06-25T07:37:15.756Z,1070
2016-06-25T07:38:28.870Z,1050
2016-06-25T07:39:13.425Z,980
2016-06-25T07:40:14.656Z,870
2016-06-25T07:41:29.584Z,955
2016-06-25T07:42:14.744Z,970
2016-06-25T07:43:14.170Z,920
2016-06-25T07:44:16.043Z,890
2016-06-25T07:45:14.854Z,925
2016-06-25T07:46:14.286Z,930
2016-06-25T07:47:29.807Z,915
2016-06-25T07:48:15.562Z,880
2016-06-25T07:49:15.601Z,845
2016-06-25T07:50:14.416Z,815
2016-06-25T07:51:14.475Z,815
2016-06-25T07:52:16.331Z,815
2016-06-25T07:53:14.559Z,795
2016-06-25T07:54:14.588Z,780
2016-06-25T07:55:15.840Z,785
2016-06-25T07:56:15.867Z,780
2016-06-25T07:57:14.696Z,770
2016-06-25T07:58:15.959Z,760
2016-06-25T07:59:14.774Z,785
2016-06-25T08:00:14.834Z,795
2016-06-25T08:02:15.506Z,785
2016-06-25T08:03:15.554Z,775
2016-06-25T08:04:16.210Z,780
2016-06-25T08:05:16.849Z,755
2016-06-25T08:06:15.666Z,740
2016-06-25T08:07:15.723Z,720
2016-06-25T08:08:15.109Z,725
2016-06-25T08:09:17.003Z,725
2016-06-25T08:10:30.704Z,735
2016-06-25T08:11:15.861Z,725
2016-06-25T08:12:31.394Z,695
2016-06-25T08:13:15.340Z,690
2016-06-25T08:14:16.601Z,690
2016-06-25T08:15:15.423Z,675
2016-06-25T08:16:16.039Z,660
2016-06-25T08:17:17.321Z,660
2016-06-25T08:18:30.385Z,655
2016-06-25T08:19:16.770Z,645
2016-06-25T08:20:16.857Z,615
2016-06-25T08:21:16.860Z,610
2016-06-25T08:22:15.698Z,610
2016-06-25T08:23:17.574Z,605
2016-06-25T08:24:17.696Z,605
2016-06-25T08:25:17.087Z,595
2016-06-25T08:26:31.426Z,580
2016-06-25T08:27:16.493Z,565
2016-06-25T08:28:17.250Z,565
2016-06-25T08:29:31.455Z,550
2016-06-25T08:30:17.204Z,545
2016-06-25T08:31:16.618Z,535
2016-06-25T08:32:30.931Z,535
2016-06-25T08:33:16.704Z,530
2016-06-25T08:34:17.962Z,525
2016-06-25T08:35:31.057Z,515
2016-06-25T08:36:31.706Z,510
2016-06-25T08:37:16.862Z,510
2016-06-25T08:38:16.895Z,510
2016-06-25T08:39:31.220Z,500
2016-06-25T08:40:17.583Z,495
2016-06-25T08:41:17.012Z,495
2016-06-25T08:43:16.472Z,490
2016-06-25T08:44:32.031Z,485
2016-06-25T08:45:17.753Z,485
2016-06-25T08:46:17.205Z,480
2016-06-25T08:47:18.199Z,480
2016-06-25T08:48:17.922Z,475
2016-06-25T08:49:18.524Z,475
2016-06-25T08:50:17.954Z,475
2016-06-25T08:51:16.781Z,470
2016-06-25T08:52:32.308Z,470
2016-06-25T08:53:16.854Z,465
2016-06-25T08:54:17.510Z,465
2016-06-25T08:55:18.154Z,465
2016-06-25T08:56:16.356Z,465
2016-06-25T08:57:18.238Z,465
2016-06-25T08:58:31.306Z,465
2016-06-25T08:59:17.708Z,465
2016-06-25T09:00:17.733Z,470
2016-06-25T09:01:32.648Z,460
2016-06-25T09:02:17.803Z,460
2016-06-25T09:03:17.843Z,455
2016-06-25T09:04:32.139Z,455
2016-06-25T09:05:19.143Z,450
2016-06-25T09:06:17.974Z,450
2016-06-25T09:07:19.216Z,450
2016-06-25T09:08:18.651Z,445
2016-06-25T09:09:33.570Z,435
2016-06-25T09:10:18.141Z,435
2016-06-25T09:11:32.408Z,430
2016-06-25T09:12:17.563Z,425
2016-06-25T09:13:31.862Z,420
2016-06-25T09:14:18.253Z,420
2016-06-25T09:15:19.508Z,410
2016-06-25T09:16:32.591Z,395
2016-06-25T09:17:19.587Z,385
2016-06-25T09:18:19.020Z,370
2016-06-25T09:19:18.462Z,365
2016-06-25T09:20:19.091Z,365
2016-06-25T09:21:17.908Z,365
2016-06-25T09:22:33.434Z,360
2016-06-25T09:23:33.469Z,355
2016-06-25T09:24:18.035Z,355
2016-06-25T09:25:18.691Z,355
2016-06-25T09:26:18.687Z,350
2016-06-25T09:27:18.759Z,355
2016-06-25T09:28:19.391Z,345
2016-06-25T09:29:19.419Z,350
2016-06-25T09:30:18.844Z,350
2016-06-25T09:31:18.271Z,345
2016-06-25T09:34:20.221Z,340
2016-06-25T09:35:19.078Z,345
2016-06-25T09:36:20.291Z,340
2016-06-25T09:37:18.519Z,340
2016-06-25T09:38:19.143Z,335
2016-06-25T09:39:19.814Z,335
2016-06-25T09:40:20.430Z,330
2016-06-25T09:41:19.873Z,330
2016-06-25T09:42:18.675Z,330
2016-06-25T09:43:18.106Z,330
2016-06-25T09:44:20.613Z,330
2016-06-25T09:45:33.059Z,330
2016-06-25T09:46:34.306Z,330
2016-06-25T09:47:19.458Z,330
2016-06-25T09:48:19.520Z,325
2016-06-25T09:49:20.766Z,325
2016-06-25T09:50:19.590Z,325
2016-06-25T09:51:18.999Z,325
2016-06-25T09:52:19.673Z,325
2016-06-25T09:53:19.087Z,320
2016-06-25T09:54:20.349Z,325
2016-06-25T09:55:19.150Z,320
2016-06-25T09:56:34.675Z,320
2016-06-25T09:57:18.622Z,320
2016-06-25T09:58:34.161Z,320
2016-06-25T09:59:19.907Z,320
2016-06-25T10:01:34.243Z,315
2016-06-25T10:02:19.406Z,315
2016-06-25T10:03:20.647Z,320
2016-06-25T10:04:21.309Z,320
2016-06-25T10:05:20.132Z,315
2016-06-25T10:06:21.424Z,310
2016-06-25T10:07:20.823Z,310
2016-06-25T10:08:20.908Z,310
2016-06-25T10:09:19.677Z,310
2016-06-25T10:10:20.939Z,300
2016-06-25T10:11:33.993Z,305
2016-06-25T10:13:20.410Z,305
2016-06-25T10:14:20.445Z,305
2016-06-25T10:15:21.694Z,305
2016-06-25T10:16:21.175Z,220
2016-06-25T10:17:35.430Z,210
2016-06-25T10:18:20.587Z,220
2016-06-25T10:19:20.032Z,315
2016-06-25T10:20:20.660Z,325
2016-06-25T10:21:20.712Z,325
2016-06-25T10:22:20.735Z,315
2016-06-25T10:23:20.792Z,310
2016-06-25T10:24:20.804Z,295
2016-06-25T10:25:21.531Z,310
2016-06-25T10:26:21.572Z,310
2016-06-25T10:27:21.511Z,310
2016-06-25T10:28:19.738Z,305
2016-06-25T10:29:22.350Z,305
2016-06-25T10:30:35.900Z,295
2016-06-25T10:33:35.419Z,315
2016-06-25T10:34:21.789Z,320
2016-06-25T10:35:21.206Z,320
2016-06-25T10:36:22.464Z,320
2016-06-25T10:37:20.712Z,305
2016-06-25T10:38:20.701Z,305
2016-06-25T10:39:21.973Z,310
2016-06-25T10:40:20.764Z,305
2016-06-25T10:41:20.816Z,305
2016-06-25T10:42:21.463Z,295
2016-06-25T10:43:22.095Z,295
2016-06-25T10:44:21.522Z,295
2016-06-25T10:45:37.051Z,295
2016-06-25T10:46:20.550Z,295
2016-06-25T10:47:35.899Z,300
2016-06-25T10:48:35.923Z,300
2016-06-25T10:49:21.073Z,290
2016-06-25T10:50:21.755Z,230
2016-06-25T10:51:21.158Z,280
2016-06-25T10:52:21.813Z,280
2016-06-25T10:53:21.853Z,290
2016-06-25T10:54:22.479Z,315
2016-06-25T10:55:21.326Z,305
2016-06-25T10:56:22.573Z,300
2016-06-25T10:57:23.178Z,300
2016-06-25T10:58:22.642Z,280
2016-06-25T10:59:22.699Z,295
2016-06-25T11:00:21.487Z,300
2016-06-25T11:01:23.341Z,265
2016-06-25T11:04:22.846Z,220
2016-06-25T11:06:21.077Z,305
2016-06-25T11:07:22.352Z,305
2016-06-25T11:08:22.957Z,300
2016-06-25T11:09:37.909Z,305
2016-06-25T11:10:37.335Z,305
2016-06-25T11:11:21.853Z,310
2016-06-25T11:13:23.193Z,225
2016-06-25T11:14:22.014Z,230
2016-06-25T11:15:21.402Z,205
2016-06-25T11:16:22.691Z,200
2016-06-25T11:17:23.350Z,195
2016-06-25T11:18:22.736Z,190
2016-06-25T11:19:22.775Z,275
2016-06-25T11:20:37.674Z,175
2016-06-25T11:21:37.701Z,170
2016-06-25T11:22:38.349Z,160
2016-06-25T11:23:23.516Z,160
2016-06-25T11:24:38.427Z,175
2016-06-25T11:25:23.584Z,180
2016-06-25T11:26:23.623Z,160
2016-06-25T11:27:37.938Z,160
2016-06-25T11:28:23.678Z,215
2016-06-25T11:29:38.025Z,145
2016-06-25T11:30:23.747Z,135
2016-06-25T11:31:23.783Z,125
2016-06-25T11:32:22.605Z,115
2016-06-25T11:33:37.522Z,105
2016-06-25T11:34:23.325Z,105
2016-06-25T11:35:23.326Z,100
2016-06-25T11:36:53.107Z,90
2016-06-25T11:38:24.636Z,85
2016-06-25T11:39:23.482Z,80
2016-06-25T11:41:22.910Z,60
2016-06-25T11:42:23.539Z,55
2016-06-25T11:43:24.185Z,50
2016-06-25T11:44:23.625Z,45
2016-06-25T11:45:23.680Z,45
2016-06-25T11:47:39.195Z,45
2016-06-25T11:48:38.013Z,45
2016-06-25T11:49:24.393Z,50
2016-06-25T11:50:24.433Z,55
2016-06-25T11:51:39.099Z,60
2016-06-25T11:52:38.179Z,60
2016-06-25T11:54:23.950Z,80
2016-06-25T11:55:24.009Z,90
2016-06-25T11:56:23.420Z,95
2016-06-25T11:57:24.072Z,95
2016-06-25T11:58:24.698Z,105
2016-06-25T11:59:38.395Z,130
2016-06-25T12:00:24.753Z,135
2016-06-25T12:01:38.445Z,170
2016-06-25T12:02:23.631Z,190
2016-06-25T12:03:24.855Z,220
2016-06-25T12:04:39.776Z,235
2016-06-25T12:05:25.505Z,240
2016-06-25T12:06:25.026Z,255
2016-06-25T12:07:24.383Z,250
2016-06-25T12:08:38.048Z,255
2016-06-25T12:09:23.825Z,255
2016-06-25T12:10:23.906Z,260
2016-06-25T12:11:25.114Z,260
2016-06-25T12:12:38.158Z,265
2016-06-25T12:13:24.542Z,265
2016-06-25T12:14:40.066Z,265
2016-06-25T12:15:24.615Z,265
2016-06-25T12:16:25.876Z,265
2016-06-25T12:17:24.077Z,265
2016-06-25T12:18:24.688Z,265
2016-06-25T12:19:25.385Z,260
2016-06-25T12:20:24.762Z,255
2016-06-25T12:21:24.823Z,255
2016-06-25T12:22:24.233Z,250
2016-06-25T12:23:38.530Z,255
2016-06-25T12:24:25.587Z,245
2016-06-25T12:26:24.945Z,245
2016-06-25T12:27:24.981Z,235
2016-06-25T12:28:25.028Z,240
2016-06-25T12:29:26.304Z,230
2016-06-25T12:30:24.464Z,235
2016-06-25T12:31:25.726Z,235
2016-06-25T12:32:25.786Z,235
2016-06-25T12:33:25.812Z,230
2016-06-25T12:34:25.847Z,230
2016-06-25T12:35:24.676Z,230
2016-06-25T12:36:25.310Z,230
2016-06-25T12:37:24.094Z,230
2016-06-25T12:38:25.340Z,230
2016-06-25T12:39:25.994Z,230
2016-06-25T12:40:26.012Z,230
2016-06-25T12:41:24.248Z,230
2016-06-25T12:42:24.862Z,230
2016-06-25T12:43:26.729Z,240
2016-06-25T12:44:25.535Z,235
2016-06-25T12:45:40.449Z,235
2016-06-25T12:46:24.391Z,230
2016-06-25T12:47:25.632Z,220
2016-06-25T12:48:25.734Z,220
2016-06-25T12:49:39.359Z,230
2016-06-25T12:50:26.952Z,215
2016-06-25T12:51:26.399Z,220
2016-06-25T12:52:25.802Z,220
2016-06-25T12:53:41.315Z,220
2016-06-25T12:54:25.867Z,225
2016-06-25T12:55:41.370Z,225
2016-06-25T12:56:27.145Z,225
2016-06-25T12:57:24.737Z,225
2016-06-25T12:58:26.002Z,220
2016-06-25T12:59:27.248Z,155
2016-06-25T13:00:26.042Z,155
2016-06-25T13:02:41.026Z,140
2016-06-25T13:03:39.808Z,155
2016-06-25T13:04:26.256Z,155
2016-06-25T13:05:26.214Z,155
2016-06-25T13:06:26.243Z,155
2016-06-25T13:07:27.611Z,240
2016-06-25T13:08:27.558Z,245
2016-06-25T13:09:26.362Z,255
2016-06-25T13:10:26.997Z,255
2016-06-25T13:11:40.675Z,265
2016-06-25T13:12:27.050Z,260
2016-06-25T13:13:27.132Z,265
2016-06-25T13:14:26.510Z,265
2016-06-25T13:16:27.173Z,265
2016-06-25T13:17:25.400Z,265
2016-06-25T13:18:27.868Z,215
2016-06-25T13:19:41.532Z,180
2016-06-25T13:20:26.711Z,270
2016-06-25T13:21:27.375Z,280
2016-06-25T13:23:41.049Z,275
2016-06-25T13:24:26.815Z,270
2016-06-25T13:25:27.523Z,270
2016-06-25T13:26:40.571Z,255
2016-06-25T13:27:41.798Z,255
2016-06-25T13:28:26.976Z,250
2016-06-25T13:29:27.613Z,165
2016-06-25T13:30:26.427Z,240
2016-06-25T13:31:27.047Z,250
2016-06-25T13:32:27.711Z,240
2016-06-25T13:33:28.365Z,250
2016-06-25T13:35:27.790Z,250
2016-06-25T13:36:27.850Z,250
2016-06-25T13:37:27.879Z,250
2016-06-25T13:38:27.909Z,260
2016-06-25T13:39:27.394Z,260
2016-06-25T13:40:28.736Z,275
2016-06-25T13:41:43.120Z,280
2016-06-25T13:42:28.023Z,275
2016-06-25T13:43:41.710Z,280
2016-06-25T13:44:41.759Z,270
2016-06-25T13:45:26.907Z,270
2016-06-25T13:46:28.773Z,265
2016-06-25T13:48:28.235Z,260
2016-06-25T13:49:28.253Z,255
2016-06-25T13:50:28.298Z,260
2016-06-25T13:51:27.701Z,260
2016-06-25T13:52:27.173Z,260
2016-06-25T13:53:27.783Z,260
2016-06-25T13:54:27.839Z,255
2016-06-25T13:55:27.841Z,255
2016-06-25T13:56:28.489Z,255
2016-06-25T13:57:27.898Z,255
2016-06-25T13:58:41.588Z,260
2016-06-25T13:59:27.360Z,260
2016-06-25T14:00:28.018Z,255
2016-06-25T14:01:28.041Z,255
2016-06-25T14:03:28.754Z,195
2016-06-25T14:04:27.549Z,250
2016-06-25T14:05:28.876Z,195
2016-06-25T14:06:28.202Z,255
2016-06-25T14:07:27.645Z,260
2016-06-25T14:08:43.150Z,260
2016-06-25T14:09:27.689Z,265
2016-06-25T14:11:43.887Z,265
2016-06-25T14:12:29.614Z,265
2016-06-25T14:13:43.365Z,265
2016-06-25T14:14:28.500Z,260
2016-06-25T14:15:29.108Z,265
2016-06-25T14:16:28.611Z,270
2016-06-25T14:17:27.969Z,265
2016-06-25T14:18:29.835Z,275
2016-06-25T14:19:27.426Z,275
2016-06-25T14:20:44.160Z,280
2016-06-25T14:21:29.311Z,280
2016-06-25T14:22:28.731Z,285
2016-06-25T14:23:28.811Z,220
2016-06-25T14:24:28.175Z,235
2016-06-25T14:25:27.639Z,285
2016-06-25T14:26:28.308Z,290
2016-06-25T14:27:30.110Z,285
2016-06-25T14:28:29.551Z,280
2016-06-25T14:30:43.881Z,275
2016-06-25T14:31:28.421Z,275
2016-06-25T14:32:30.280Z,270
2016-06-25T14:33:29.105Z,270
2016-06-25T14:34:29.188Z,270
2016-06-25T14:35:28.590Z,270
2016-06-25T14:38:42.935Z,285
2016-06-25T14:39:29.323Z,295
2016-06-25T14:40:29.987Z,235
2016-06-25T14:41:29.367Z,230
2016-06-25T14:42:30.026Z,220
2016-06-25T14:43:30.046Z,215
2016-06-25T14:44:28.847Z,215
2016-06-25T14:45:30.118Z,230
2016-06-25T14:46:45.046Z,240
2016-06-25T14:47:30.783Z,235
2016-06-25T14:48:30.181Z,235
2016-06-25T14:49:30.839Z,230
2016-06-25T14:50:29.656Z,230
2016-06-25T14:51:29.669Z,210
2016-06-25T14:52:30.305Z,205
2016-06-25T14:53:29.780Z,205
2016-06-25T14:54:29.778Z,205